sensor_id;sensor_type;location;lat;lon;timestamp;pressure;altitude;pressure_sealevel;temperature;humidity
70437;BME280;57877;39.750;-104.894;2024-01-11T00:01:09;82122.63;;;-1.01;19.71
70437;BME280;57877;39.750;-104.894;2024-01-11T00:03:32;82127.63;;;-1.41;20.29
70437;BME280;57877;39.750;-104.894;2024-01-11T00:05:57;82129.66;;;-1.06;20.19
70437;BME280;57877;39.750;-104.894;2024-01-11T00:08:22;82132.53;;;-1.42;20.17
70437;BME280;57877;39.750;-104.894;2024-01-11T00:10:47;82138.43;;;-1.30;19.84
70437;BME280;57877;39.750;-104.894;2024-01-11T00:13:12;82140.23;;;-0.09;19.32
70437;BME280;57877;39.750;-104.894;2024-01-11T00:15:37;82143.19;;;-0.39;19.18
70437;BME280;57877;39.750;-104.894;2024-01-11T00:18:03;82144.85;;;-1.77;20.09
70437;BME280;57877;39.750;-104.894;2024-01-11T00:20:28;82150.31;;;-0.08;19.16
70437;BME280;57877;39.750;-104.894;2024-01-11T00:22:53;82150.09;;;-1.32;19.72
70437;BME280;57877;39.750;-104.894;2024-01-11T00:25:18;82148.79;;;0.24;19.13
70437;BME280;57877;39.750;-104.894;2024-01-11T00:27:43;82147.79;;;-0.09;19.02
70437;BME280;57877;39.750;-104.894;2024-01-11T00:30:09;82146.90;;;-0.23;19.04
70437;BME280;57877;39.750;-104.894;2024-01-11T00:32:33;82157.22;;;-0.46;19.06
70437;BME280;57877;39.750;-104.894;2024-01-11T00:34:58;82158.35;;;-1.34;19.80
70437;BME280;57877;39.750;-104.894;2024-01-11T00:37:24;82161.73;;;-0.02;19.28
70437;BME280;57877;39.750;-104.894;2024-01-11T00:39:49;82164.06;;;0.40;18.61
70437;BME280;57877;39.750;-104.894;2024-01-11T00:42:14;82167.80;;;0.68;18.20
70437;BME280;57877;39.750;-104.894;2024-01-11T00:44:39;82173.81;;;0.85;17.96
70437;BME280;57877;39.750;-104.894;2024-01-11T00:47:04;82180.37;;;0.91;18.04
70437;BME280;57877;39.750;-104.894;2024-01-11T00:49:29;82182.39;;;0.46;18.36
70437;BME280;57877;39.750;-104.894;2024-01-11T00:51:54;82186.41;;;0.76;17.94
70437;BME280;57877;39.750;-104.894;2024-01-11T00:54:19;82184.42;;;0.78;17.67
70437;BME280;57877;39.750;-104.894;2024-01-11T00:56:45;82190.09;;;0.96;17.61
70437;BME280;57877;39.750;-104.894;2024-01-11T00:59:10;82195.90;;;1.14;17.35
70437;BME280;57877;39.750;-104.894;2024-01-11T01:01:35;82202.19;;;1.00;17.45
70437;BME280;57877;39.750;-104.894;2024-01-11T01:04:00;82202.69;;;1.32;17.30
70437;BME280;57877;39.750;-104.894;2024-01-11T01:06:25;82201.50;;;1.46;17.25
70437;BME280;57877;39.750;-104.894;2024-01-11T01:08:50;82202.66;;;1.50;17.29
70437;BME280;57877;39.750;-104.894;2024-01-11T01:11:15;82204.78;;;1.36;17.19
70437;BME280;57877;39.750;-104.894;2024-01-11T01:13:40;82206.86;;;1.77;17.28
70437;BME280;57877;39.750;-104.894;2024-01-11T01:16:05;82205.29;;;1.84;17.31
70437;BME280;57877;39.750;-104.894;2024-01-11T01:18:30;82201.70;;;1.53;17.13
70437;BME280;57877;39.750;-104.894;2024-01-11T01:20:56;82198.12;;;1.81;17.36
70437;BME280;57877;39.750;-104.894;2024-01-11T01:23:20;82201.86;;;1.47;17.41
70437;BME280;57877;39.750;-104.894;2024-01-11T01:25:46;82200.05;;;1.43;17.50
70437;BME280;57877;39.750;-104.894;2024-01-11T01:28:11;82201.69;;;1.24;17.75
70437;BME280;57877;39.750;-104.894;2024-01-11T01:30:36;82198.90;;;1.51;18.00
70437;BME280;57877;39.750;-104.894;2024-01-11T01:33:01;82199.76;;;1.23;17.91
70437;BME280;57877;39.750;-104.894;2024-01-11T01:35:26;82201.90;;;1.55;18.21
70437;BME280;57877;39.750;-104.894;2024-01-11T01:37:51;82205.51;;;1.32;18.26
70437;BME280;57877;39.750;-104.894;2024-01-11T01:40:16;82211.99;;;0.68;18.76
70437;BME280;57877;39.750;-104.894;2024-01-11T01:42:43;82207.19;;;0.89;19.06
70437;BME280;57877;39.750;-104.894;2024-01-11T01:45:08;82206.04;;;0.58;19.47
70437;BME280;57877;39.750;-104.894;2024-01-11T01:47:32;82204.00;;;0.60;19.64
70437;BME280;57877;39.750;-104.894;2024-01-11T01:49:57;82202.44;;;0.17;19.75
70437;BME280;57877;39.750;-104.894;2024-01-11T01:52:22;82200.63;;;0.61;19.82
70437;BME280;57877;39.750;-104.894;2024-01-11T01:54:48;82190.89;;;0.93;19.71
70437;BME280;57877;39.750;-104.894;2024-01-11T01:57:13;82184.92;;;0.72;20.23
70437;BME280;57877;39.750;-104.894;2024-01-11T01:59:38;82183.88;;;0.84;20.65
70437;BME280;57877;39.750;-104.894;2024-01-11T02:02:03;82178.47;;;-0.02;21.46
70437;BME280;57877;39.750;-104.894;2024-01-11T02:04:28;82166.90;;;0.60;20.96
70437;BME280;57877;39.750;-104.894;2024-01-11T02:06:54;82147.42;;;-0.61;22.10
70437;BME280;57877;39.750;-104.894;2024-01-11T02:09:18;82136.92;;;-0.34;21.88
70437;BME280;57877;39.750;-104.894;2024-01-11T02:11:44;82143.15;;;0.44;21.40
70437;BME280;57877;39.750;-104.894;2024-01-11T02:14:10;82147.26;;;0.14;21.78
70437;BME280;57877;39.750;-104.894;2024-01-11T02:16:34;82144.33;;;-0.57;22.11
70437;BME280;57877;39.750;-104.894;2024-01-11T02:18:59;82142.15;;;-0.61;22.42
70437;BME280;57877;39.750;-104.894;2024-01-11T02:21:24;82138.05;;;-0.40;22.48
70437;BME280;57877;39.750;-104.894;2024-01-11T02:23:58;82135.38;;;-0.59;22.77
70437;BME280;57877;39.750;-104.894;2024-01-11T02:26:14;82136.73;;;-0.57;22.93
70437;BME280;57877;39.750;-104.894;2024-01-11T02:28:44;82136.91;;;-0.83;23.26
70437;BME280;57877;39.750;-104.894;2024-01-11T02:31:05;82131.86;;;-0.85;23.44
70437;BME280;57877;39.750;-104.894;2024-01-11T02:33:30;82130.64;;;-0.71;22.86
70437;BME280;57877;39.750;-104.894;2024-01-11T02:35:55;82137.43;;;-0.28;22.75
70437;BME280;57877;39.750;-104.894;2024-01-11T02:38:20;82145.94;;;-0.10;22.30
70437;BME280;57877;39.750;-104.894;2024-01-11T02:40:45;82146.94;;;0.37;21.83
70437;BME280;57877;39.750;-104.894;2024-01-11T02:43:10;82145.74;;;0.36;22.06
70437;BME280;57877;39.750;-104.894;2024-01-11T02:45:35;82142.74;;;0.73;21.63
70437;BME280;57877;39.750;-104.894;2024-01-11T02:48:00;82140.37;;;0.59;21.67
70437;BME280;57877;39.750;-104.894;2024-01-11T02:50:25;82128.33;;;0.52;21.45
70437;BME280;57877;39.750;-104.894;2024-01-11T02:52:51;82121.36;;;0.31;21.59
70437;BME280;57877;39.750;-104.894;2024-01-11T02:55:16;82118.69;;;0.23;21.79
70437;BME280;57877;39.750;-104.894;2024-01-11T02:57:41;82111.79;;;0.59;21.68
70437;BME280;57877;39.750;-104.894;2024-01-11T03:00:07;82119.26;;;-0.21;22.14
70437;BME280;57877;39.750;-104.894;2024-01-11T03:02:31;82115.35;;;0.35;21.87
70437;BME280;57877;39.750;-104.894;2024-01-11T03:04:56;82115.82;;;-0.12;22.15
70437;BME280;57877;39.750;-104.894;2024-01-11T03:07:21;82114.14;;;-0.37;22.53
70437;BME280;57877;39.750;-104.894;2024-01-11T03:09:46;82118.01;;;-0.12;22.27
70437;BME280;57877;39.750;-104.894;2024-01-11T03:12:12;82132.96;;;-0.42;22.57
70437;BME280;57877;39.750;-104.894;2024-01-11T03:14:37;82135.17;;;-1.20;23.17
70437;BME280;57877;39.750;-104.894;2024-01-11T03:17:02;82124.49;;;-1.04;23.39
70437;BME280;57877;39.750;-104.894;2024-01-11T03:19:27;82108.84;;;-0.78;23.24
70437;BME280;57877;39.750;-104.894;2024-01-11T03:21:52;82096.34;;;-1.00;23.36
70437;BME280;57877;39.750;-104.894;2024-01-11T03:24:17;82085.82;;;-1.12;24.04
70437;BME280;57877;39.750;-104.894;2024-01-11T03:26:42;82072.39;;;-0.68;23.64
70437;BME280;57877;39.750;-104.894;2024-01-11T03:29:08;82065.14;;;-1.21;24.07
70437;BME280;57877;39.750;-104.894;2024-01-11T03:31:33;82076.37;;;-1.86;24.72
70437;BME280;57877;39.750;-104.894;2024-01-11T03:33:58;82079.81;;;-2.21;25.36
70437;BME280;57877;39.750;-104.894;2024-01-11T03:36:24;82073.31;;;-1.72;24.97
70437;BME280;57877;39.750;-104.894;2024-01-11T03:38:48;82070.32;;;-2.02;25.28
70437;BME280;57877;39.750;-104.894;2024-01-11T03:41:13;82077.37;;;-1.79;25.22
70437;BME280;57877;39.750;-104.894;2024-01-11T03:43:38;82075.54;;;-1.95;25.60
70437;BME280;57877;39.750;-104.894;2024-01-11T03:46:04;82070.34;;;-1.99;25.86
70437;BME280;57877;39.750;-104.894;2024-01-11T03:48:29;82061.34;;;-1.39;25.43
70437;BME280;57877;39.750;-104.894;2024-01-11T03:50:54;82047.36;;;-1.92;25.73
70437;BME280;57877;39.750;-104.894;2024-01-11T03:53:19;82036.47;;;-1.61;25.62
70437;BME280;57877;39.750;-104.894;2024-01-11T03:55:44;82030.30;;;-1.65;25.65
70437;BME280;57877;39.750;-104.894;2024-01-11T03:58:09;82024.19;;;-2.12;26.18
70437;BME280;57877;39.750;-104.894;2024-01-11T04:00:36;82025.91;;;-1.81;26.03
70437;BME280;57877;39.750;-104.894;2024-01-11T04:03:00;82031.58;;;-2.18;26.46
70437;BME280;57877;39.750;-104.894;2024-01-11T04:05:25;82028.76;;;-1.73;26.18
70437;BME280;57877;39.750;-104.894;2024-01-11T04:07:50;82029.86;;;-1.77;25.96
70437;BME280;57877;39.750;-104.894;2024-01-11T04:10:17;82028.75;;;-2.14;26.34
70437;BME280;57877;39.750;-104.894;2024-01-11T04:12:40;82021.46;;;-1.65;26.04
70437;BME280;57877;39.750;-104.894;2024-01-11T04:15:06;82017.10;;;-2.44;26.58
70437;BME280;57877;39.750;-104.894;2024-01-11T04:17:31;82013.98;;;-2.49;26.82
70437;BME280;57877;39.750;-104.894;2024-01-11T04:19:56;82009.10;;;-2.12;26.39
70437;BME280;57877;39.750;-104.894;2024-01-11T04:22:21;82010.53;;;-2.33;26.70
70437;BME280;57877;39.750;-104.894;2024-01-11T04:24:46;82008.47;;;-2.14;26.43
70437;BME280;57877;39.750;-104.894;2024-01-11T04:27:11;82004.19;;;-2.52;26.09
70437;BME280;57877;39.750;-104.894;2024-01-11T04:29:37;82002.95;;;-2.42;25.86
70437;BME280;57877;39.750;-104.894;2024-01-11T04:32:02;81997.72;;;-2.41;25.63
70437;BME280;57877;39.750;-104.894;2024-01-11T04:34:27;81996.29;;;-1.88;25.17
70437;BME280;57877;39.750;-104.894;2024-01-11T04:36:52;82000.66;;;-1.77;24.73
70437;BME280;57877;39.750;-104.894;2024-01-11T04:39:17;81995.88;;;-1.87;24.91
70437;BME280;57877;39.750;-104.894;2024-01-11T04:41:42;81988.46;;;-1.38;24.33
70437;BME280;57877;39.750;-104.894;2024-01-11T04:44:07;81979.67;;;-0.84;23.85
70437;BME280;57877;39.750;-104.894;2024-01-11T04:46:32;81970.88;;;-0.87;23.64
70437;BME280;57877;39.750;-104.894;2024-01-11T04:48:57;81959.87;;;-0.83;23.78
70437;BME280;57877;39.750;-104.894;2024-01-11T04:51:22;81956.12;;;-1.34;24.40
70437;BME280;57877;39.750;-104.894;2024-01-11T04:53:47;81961.65;;;-1.54;24.46
70437;BME280;57877;39.750;-104.894;2024-01-11T04:56:15;81963.02;;;-2.01;24.61
70437;BME280;57877;39.750;-104.894;2024-01-11T04:58:40;81964.40;;;-1.84;24.47
70437;BME280;57877;39.750;-104.894;2024-01-11T05:01:03;81968.52;;;-1.33;24.16
70437;BME280;57877;39.750;-104.894;2024-01-11T05:03:28;81972.50;;;-2.30;24.71
70437;BME280;57877;39.750;-104.894;2024-01-11T05:05:53;81964.23;;;-2.60;25.21
70437;BME280;57877;39.750;-104.894;2024-01-11T05:08:18;81948.66;;;-1.77;24.60
70437;BME280;57877;39.750;-104.894;2024-01-11T05:10:44;81942.51;;;-1.97;24.51
70437;BME280;57877;39.750;-104.894;2024-01-11T05:13:09;81934.73;;;-0.88;23.85
70437;BME280;57877;39.750;-104.894;2024-01-11T05:15:35;81925.93;;;-1.06;23.53
70437;BME280;57877;39.750;-104.894;2024-01-11T05:17:59;81929.27;;;-1.34;23.97
70437;BME280;57877;39.750;-104.894;2024-01-11T05:20:24;81935.03;;;-2.06;24.37
70437;BME280;57877;39.750;-104.894;2024-01-11T05:22:49;81929.33;;;-1.63;24.19
70437;BME280;57877;39.750;-104.894;2024-01-11T05:25:14;81932.76;;;-1.55;24.15
70437;BME280;57877;39.750;-104.894;2024-01-11T05:27:39;81936.87;;;-1.28;24.19
70437;BME280;57877;39.750;-104.894;2024-01-11T05:30:05;81927.07;;;-1.33;24.08
70437;BME280;57877;39.750;-104.894;2024-01-11T05:32:29;81915.50;;;-1.10;23.78
70437;BME280;57877;39.750;-104.894;2024-01-11T05:34:55;81906.24;;;-1.12;23.67
70437;BME280;57877;39.750;-104.894;2024-01-11T05:37:20;81905.54;;;-1.42;23.88
70437;BME280;57877;39.750;-104.894;2024-01-11T05:39:45;81905.43;;;-0.65;23.57
70437;BME280;57877;39.750;-104.894;2024-01-11T05:42:10;81906.32;;;-0.94;23.53
70437;BME280;57877;39.750;-104.894;2024-01-11T05:44:35;81903.23;;;-1.21;23.72
70437;BME280;57877;39.750;-104.894;2024-01-11T05:47:00;81905.77;;;-1.11;23.64
70437;BME280;57877;39.750;-104.894;2024-01-11T05:49:25;81912.88;;;-1.71;23.79
70437;BME280;57877;39.750;-104.894;2024-01-11T05:51:51;81911.35;;;-1.46;23.62
70437;BME280;57877;39.750;-104.894;2024-01-11T05:54:16;81906.11;;;-1.19;23.46
70437;BME280;57877;39.750;-104.894;2024-01-11T05:56:41;81915.16;;;-0.77;22.93
70437;BME280;57877;39.750;-104.894;2024-01-11T05:59:06;81916.16;;;-1.21;22.93
70437;BME280;57877;39.750;-104.894;2024-01-11T06:01:31;81906.12;;;-0.85;22.79
70437;BME280;57877;39.750;-104.894;2024-01-11T06:03:56;81899.80;;;-0.79;22.58
70437;BME280;57877;39.750;-104.894;2024-01-11T06:06:21;81900.00;;;-0.52;22.41
70437;BME280;57877;39.750;-104.894;2024-01-11T06:08:46;81905.58;;;-0.86;22.26
70437;BME280;57877;39.750;-104.894;2024-01-11T06:11:11;81905.74;;;-0.24;21.87
70437;BME280;57877;39.750;-104.894;2024-01-11T06:13:37;81898.98;;;0.06;21.75
70437;BME280;57877;39.750;-104.894;2024-01-11T06:16:02;81896.47;;;-0.38;21.89
70437;BME280;57877;39.750;-104.894;2024-01-11T06:18:27;81889.72;;;0.24;21.76
70437;BME280;57877;39.750;-104.894;2024-01-11T06:20:52;81880.07;;;-0.10;21.83
70437;BME280;57877;39.750;-104.894;2024-01-11T06:23:17;81873.40;;;-0.18;21.79
70437;BME280;57877;39.750;-104.894;2024-01-11T06:25:42;81868.87;;;-0.04;21.73
70437;BME280;57877;39.750;-104.894;2024-01-11T06:28:08;81866.48;;;-0.10;21.92
70437;BME280;57877;39.750;-104.894;2024-01-11T06:30:32;81862.69;;;-0.49;22.16
70437;BME280;57877;39.750;-104.894;2024-01-11T06:32:57;81871.99;;;-0.40;22.26
70437;BME280;57877;39.750;-104.894;2024-01-11T06:35:23;81865.44;;;-0.28;23.00
70437;BME280;57877;39.750;-104.894;2024-01-11T06:37:48;81868.01;;;-0.26;22.69
70437;BME280;57877;39.750;-104.894;2024-01-11T06:40:13;81865.12;;;-0.37;22.67
70437;BME280;57877;39.750;-104.894;2024-01-11T06:42:38;81867.16;;;-0.47;23.14
70437;BME280;57877;39.750;-104.894;2024-01-11T06:45:04;81867.09;;;-0.21;23.02
70437;BME280;57877;39.750;-104.894;2024-01-11T06:47:28;81868.80;;;-0.93;24.08
70437;BME280;57877;39.750;-104.894;2024-01-11T06:49:54;81855.12;;;-0.31;22.41
70437;BME280;57877;39.750;-104.894;2024-01-11T06:52:18;81843.57;;;-0.35;22.86
70437;BME280;57877;39.750;-104.894;2024-01-11T06:54:44;81825.73;;;-0.53;21.95
70437;BME280;57877;39.750;-104.894;2024-01-11T06:57:09;81828.33;;;-0.58;21.80
70437;BME280;57877;39.750;-104.894;2024-01-11T06:59:34;81826.44;;;-1.40;21.79
70437;BME280;57877;39.750;-104.894;2024-01-11T07:01:59;81820.95;;;-0.85;21.55
70437;BME280;57877;39.750;-104.894;2024-01-11T07:04:24;81814.66;;;-1.56;22.24
70437;BME280;57877;39.750;-104.894;2024-01-11T07:06:49;81805.87;;;-1.95;22.65
70437;BME280;57877;39.750;-104.894;2024-01-11T07:09:14;81802.79;;;-1.01;21.96
70437;BME280;57877;39.750;-104.894;2024-01-11T07:11:39;81796.80;;;-1.48;22.35
70437;BME280;57877;39.750;-104.894;2024-01-11T07:14:04;81798.86;;;-1.10;22.13
70437;BME280;57877;39.750;-104.894;2024-01-11T07:16:30;81796.51;;;-1.09;22.19
70437;BME280;57877;39.750;-104.894;2024-01-11T07:18:55;81803.83;;;-1.40;21.97
70437;BME280;57877;39.750;-104.894;2024-01-11T07:21:22;81796.18;;;-0.66;21.49
70437;BME280;57877;39.750;-104.894;2024-01-11T07:23:45;81793.62;;;-0.64;21.48
70437;BME280;57877;39.750;-104.894;2024-01-11T07:26:10;81785.30;;;-0.46;21.44
70437;BME280;57877;39.750;-104.894;2024-01-11T07:28:35;81771.94;;;-0.69;21.81
70437;BME280;57877;39.750;-104.894;2024-01-11T07:31:00;81776.59;;;-1.18;22.05
70437;BME280;57877;39.750;-104.894;2024-01-11T07:33:25;81779.01;;;-1.37;22.44
70437;BME280;57877;39.750;-104.894;2024-01-11T07:35:50;81780.75;;;-0.94;22.11
70437;BME280;57877;39.750;-104.894;2024-01-11T07:38:15;81771.38;;;-1.53;22.64
70437;BME280;57877;39.750;-104.894;2024-01-11T07:40:40;81758.46;;;-1.37;22.72
70437;BME280;57877;39.750;-104.894;2024-01-11T07:43:06;81766.84;;;-1.04;22.43
70437;BME280;57877;39.750;-104.894;2024-01-11T07:45:31;81753.44;;;-1.13;22.41
70437;BME280;57877;39.750;-104.894;2024-01-11T07:47:56;81746.72;;;-1.68;22.93
70437;BME280;57877;39.750;-104.894;2024-01-11T07:50:21;81737.34;;;-1.08;22.67
70437;BME280;57877;39.750;-104.894;2024-01-11T07:52:46;81729.73;;;-1.81;22.96
70437;BME280;57877;39.750;-104.894;2024-01-11T07:55:11;81714.97;;;-0.94;22.68
70437;BME280;57877;39.750;-104.894;2024-01-11T07:57:37;81708.85;;;-0.72;22.34
70437;BME280;57877;39.750;-104.894;2024-01-11T08:00:02;81710.15;;;-1.91;23.25
70437;BME280;57877;39.750;-104.894;2024-01-11T08:02:27;81706.37;;;-1.00;22.41
70437;BME280;57877;39.750;-104.894;2024-01-11T08:04:52;81700.24;;;-0.62;22.24
70437;BME280;57877;39.750;-104.894;2024-01-11T08:07:17;81699.05;;;-0.47;22.34
70437;BME280;57877;39.750;-104.894;2024-01-11T08:09:42;81711.32;;;-0.50;22.16
70437;BME280;57877;39.750;-104.894;2024-01-11T08:12:07;81710.79;;;-0.63;22.22
70437;BME280;57877;39.750;-104.894;2024-01-11T08:14:32;81686.07;;;-0.13;22.01
70437;BME280;57877;39.750;-104.894;2024-01-11T08:16:57;81670.98;;;0.28;21.48
70437;BME280;57877;39.750;-104.894;2024-01-11T08:19:23;81664.31;;;0.45;21.29
70437;BME280;57877;39.750;-104.894;2024-01-11T08:21:48;81667.32;;;0.14;21.49
70437;BME280;57877;39.750;-104.894;2024-01-11T08:24:13;81667.25;;;0.03;21.63
70437;BME280;57877;39.750;-104.894;2024-01-11T08:26:38;81671.56;;;-0.16;21.91
70437;BME280;57877;39.750;-104.894;2024-01-11T08:29:03;81669.85;;;0.19;21.60
70437;BME280;57877;39.750;-104.894;2024-01-11T08:31:28;81659.28;;;0.02;21.77
70437;BME280;57877;39.750;-104.894;2024-01-11T08:33:53;81638.55;;;-0.15;21.94
70437;BME280;57877;39.750;-104.894;2024-01-11T08:36:18;81647.25;;;-0.67;22.46
70437;BME280;57877;39.750;-104.894;2024-01-11T08:38:43;81649.93;;;0.00;21.98
70437;BME280;57877;39.750;-104.894;2024-01-11T08:41:08;81651.21;;;-0.24;22.21
70437;BME280;57877;39.750;-104.894;2024-01-11T08:43:34;81645.99;;;-0.59;22.72
70437;BME280;57877;39.750;-104.894;2024-01-11T08:45:59;81637.01;;;-0.26;22.88
70437;BME280;57877;39.750;-104.894;2024-01-11T08:48:24;81628.55;;;0.04;22.54
70437;BME280;57877;39.750;-104.894;2024-01-11T08:50:49;81631.63;;;0.40;21.98
70437;BME280;57877;39.750;-104.894;2024-01-11T08:53:14;81636.44;;;0.75;21.36
70437;BME280;57877;39.750;-104.894;2024-01-11T08:55:39;81645.58;;;0.31;21.68
70437;BME280;57877;39.750;-104.894;2024-01-11T08:58:04;81633.80;;;1.30;21.09
70437;BME280;57877;39.750;-104.894;2024-01-11T09:00:29;81644.63;;;0.62;21.71
70437;BME280;57877;39.750;-104.894;2024-01-11T09:02:54;81649.29;;;-0.07;22.19
70437;BME280;57877;39.750;-104.894;2024-01-11T09:05:19;81645.13;;;0.68;21.61
70437;BME280;57877;39.750;-104.894;2024-01-11T09:07:44;81644.82;;;1.09;21.13
70437;BME280;57877;39.750;-104.894;2024-01-11T09:10:10;81633.58;;;1.26;20.93
70437;BME280;57877;39.750;-104.894;2024-01-11T09:12:35;81634.30;;;0.75;21.25
70437;BME280;57877;39.750;-104.894;2024-01-11T09:15:00;81636.23;;;0.73;21.31
70437;BME280;57877;39.750;-104.894;2024-01-11T09:17:25;81655.50;;;-0.30;21.94
70437;BME280;57877;39.750;-104.894;2024-01-11T09:19:50;81662.58;;;0.59;21.69
70437;BME280;57877;39.750;-104.894;2024-01-11T09:22:15;81649.21;;;0.65;21.38
70437;BME280;57877;39.750;-104.894;2024-01-11T09:24:40;81650.83;;;0.77;21.54
70437;BME280;57877;39.750;-104.894;2024-01-11T09:27:05;81643.30;;;0.85;21.87
70437;BME280;57877;39.750;-104.894;2024-01-11T09:29:30;81638.16;;;1.12;21.47
70437;BME280;57877;39.750;-104.894;2024-01-11T09:31:55;81636.10;;;1.23;21.18
70437;BME280;57877;39.750;-104.894;2024-01-11T09:34:20;81633.44;;;1.05;21.36
70437;BME280;57877;39.750;-104.894;2024-01-11T09:36:45;81627.20;;;1.20;21.25
70437;BME280;57877;39.750;-104.894;2024-01-11T09:39:10;81633.79;;;1.04;21.41
70437;BME280;57877;39.750;-104.894;2024-01-11T09:41:37;81644.07;;;0.23;23.34
70437;BME280;57877;39.750;-104.894;2024-01-11T09:44:01;81642.26;;;0.99;23.15
70437;BME280;57877;39.750;-104.894;2024-01-11T09:46:27;81632.62;;;0.93;22.55
70437;BME280;57877;39.750;-104.894;2024-01-11T09:48:52;81618.92;;;1.26;21.99
70437;BME280;57877;39.750;-104.894;2024-01-11T09:51:16;81620.26;;;1.49;22.06
70437;BME280;57877;39.750;-104.894;2024-01-11T09:53:42;81630.23;;;1.34;21.81
70437;BME280;57877;39.750;-104.894;2024-01-11T09:56:08;81633.05;;;1.33;21.68
70437;BME280;57877;39.750;-104.894;2024-01-11T09:58:33;81633.79;;;1.42;21.48
70437;BME280;57877;39.750;-104.894;2024-01-11T10:00:57;81634.00;;;1.49;21.82
70437;BME280;57877;39.750;-104.894;2024-01-11T10:03:22;81634.26;;;1.30;21.99
70437;BME280;57877;39.750;-104.894;2024-01-11T10:05:47;81630.26;;;1.06;22.52
70437;BME280;57877;39.750;-104.894;2024-01-11T10:08:12;81628.98;;;1.06;22.31
70437;BME280;57877;39.750;-104.894;2024-01-11T10:10:37;81627.97;;;1.22;22.54
70437;BME280;57877;39.750;-104.894;2024-01-11T10:13:02;81637.29;;;1.13;22.61
70437;BME280;57877;39.750;-104.894;2024-01-11T10:15:27;81625.86;;;0.94;22.66
70437;BME280;57877;39.750;-104.894;2024-01-11T10:17:52;81625.67;;;0.77;23.26
70437;BME280;57877;39.750;-104.894;2024-01-11T10:20:17;81621.99;;;0.88;23.18
70437;BME280;57877;39.750;-104.894;2024-01-11T10:22:42;81615.98;;;0.88;23.27
70437;BME280;57877;39.750;-104.894;2024-01-11T10:25:09;81617.93;;;0.78;22.91
70437;BME280;57877;39.750;-104.894;2024-01-11T10:27:32;81625.95;;;0.36;22.99
70437;BME280;57877;39.750;-104.894;2024-01-11T10:29:58;81624.33;;;0.64;22.30
70437;BME280;57877;39.750;-104.894;2024-01-11T10:32:22;81622.48;;;0.80;22.58
70437;BME280;57877;39.750;-104.894;2024-01-11T10:34:49;81621.48;;;0.62;23.04
70437;BME280;57877;39.750;-104.894;2024-01-11T10:37:13;81617.73;;;0.09;23.34
70437;BME280;57877;39.750;-104.894;2024-01-11T10:39:39;81630.86;;;-1.99;25.79
70437;BME280;57877;39.750;-104.894;2024-01-11T10:42:05;81633.83;;;-3.35;27.93
70437;BME280;57877;39.750;-104.894;2024-01-11T10:44:33;81629.48;;;-3.58;29.18
70437;BME280;57877;39.750;-104.894;2024-01-11T10:46:56;81631.70;;;-2.57;28.40
70437;BME280;57877;39.750;-104.894;2024-01-11T10:49:20;81630.33;;;-3.65;30.04
70437;BME280;57877;39.750;-104.894;2024-01-11T10:51:47;81625.34;;;-3.07;28.88
70437;BME280;57877;39.750;-104.894;2024-01-11T10:54:09;81623.65;;;-2.77;28.75
70437;BME280;57877;39.750;-104.894;2024-01-11T10:56:35;81634.57;;;-3.52;29.07
70437;BME280;57877;39.750;-104.894;2024-01-11T10:58:59;81630.61;;;-2.87;28.71
70437;BME280;57877;39.750;-104.894;2024-01-11T11:01:24;81636.12;;;-4.45;30.10
70437;BME280;57877;39.750;-104.894;2024-01-11T11:03:50;81634.47;;;-3.61;29.58
70437;BME280;57877;39.750;-104.894;2024-01-11T11:06:14;81637.76;;;-3.28;29.17
70437;BME280;57877;39.750;-104.894;2024-01-11T11:08:40;81645.33;;;-3.27;28.40
70437;BME280;57877;39.750;-104.894;2024-01-11T11:11:05;81637.63;;;-2.70;28.30
70437;BME280;57877;39.750;-104.894;2024-01-11T11:13:30;81633.93;;;-4.47;29.89
70437;BME280;57877;39.750;-104.894;2024-01-11T11:15:55;81619.87;;;-3.67;29.06
70437;BME280;57877;39.750;-104.894;2024-01-11T11:18:20;81639.60;;;-4.91;30.30
70437;BME280;57877;39.750;-104.894;2024-01-11T11:20:46;81635.34;;;-3.29;29.20
70437;BME280;57877;39.750;-104.894;2024-01-11T11:23:11;81653.96;;;-5.75;31.63
70437;BME280;57877;39.750;-104.894;2024-01-11T11:25:35;81651.62;;;-4.92;31.11
70437;BME280;57877;39.750;-104.894;2024-01-11T11:28:01;81648.03;;;-3.92;30.53
70437;BME280;57877;39.750;-104.894;2024-01-11T11:30:26;81658.07;;;-3.75;29.63
70437;BME280;57877;39.750;-104.894;2024-01-11T11:32:51;81660.47;;;-5.82;32.02
70437;BME280;57877;39.750;-104.894;2024-01-11T11:35:16;81669.73;;;-5.70;32.57
70437;BME280;57877;39.750;-104.894;2024-01-11T11:37:41;81676.08;;;-6.78;34.22
70437;BME280;57877;39.750;-104.894;2024-01-11T11:40:09;81681.48;;;-6.84;35.04
70437;BME280;57877;39.750;-104.894;2024-01-11T11:42:33;81684.60;;;-6.38;34.93
70437;BME280;57877;39.750;-104.894;2024-01-11T11:44:57;81686.30;;;-5.08;32.89
70437;BME280;57877;39.750;-104.894;2024-01-11T11:47:22;81691.94;;;-5.55;33.03
70437;BME280;57877;39.750;-104.894;2024-01-11T11:52:15;81701.17;;;-6.38;34.19
70437;BME280;57877;39.750;-104.894;2024-01-11T11:54:38;81710.19;;;-5.66;33.30
70437;BME280;57877;39.750;-104.894;2024-01-11T11:57:03;81714.37;;;-6.81;33.94
70437;BME280;57877;39.750;-104.894;2024-01-11T11:59:29;81722.59;;;-7.76;35.14
70437;BME280;57877;39.750;-104.894;2024-01-11T12:01:53;81724.76;;;-6.49;34.84
70437;BME280;57877;39.750;-104.894;2024-01-11T12:04:18;81731.98;;;-7.02;35.24
70437;BME280;57877;39.750;-104.894;2024-01-11T12:06:43;81732.49;;;-6.56;34.33
70437;BME280;57877;39.750;-104.894;2024-01-11T12:09:08;81744.35;;;-6.77;34.89
70437;BME280;57877;39.750;-104.894;2024-01-11T12:11:34;81748.52;;;-7.45;34.68
70437;BME280;57877;39.750;-104.894;2024-01-11T12:13:59;81755.81;;;-8.73;37.44
70437;BME280;57877;39.750;-104.894;2024-01-11T12:16:24;81762.19;;;-8.39;36.20
70437;BME280;57877;39.750;-104.894;2024-01-11T12:18:50;81760.15;;;-6.58;34.44
70437;BME280;57877;39.750;-104.894;2024-01-11T12:21:15;81758.21;;;-6.24;33.99
70437;BME280;57877;39.750;-104.894;2024-01-11T12:23:40;81762.41;;;-5.74;33.33